sensor_id;sensor_type;location;lat;lon;timestamp;P1;durP1;ratioP1;P2;durP2;ratioP2
25715;SDS011;13573;50.936;4.328;2023-03-01T00:00:06;17.80;;;10.13;;
25715;SDS011;13573;50.936;4.328;2023-03-01T00:02:33;17.83;;;10.47;;
25715;SDS011;13573;50.936;4.328;2023-03-01T00:04:59;20.03;;;10.90;;
25715;SDS011;13573;50.936;4.328;2023-03-01T00:07:26;16.50;;;10.07;;
25715;SDS011;13573;50.936;4.328;2023-03-01T00:09:52;20.00;;;10.07;;
25715;SDS011;13573;50.936;4.328;2023-03-01T00:12:19;18.10;;;10.13;;
25715;SDS011;13573;50.936;4.328;2023-03-01T00:14:46;25.93;;;11.33;;
25715;SDS011;13573;50.936;4.328;2023-03-01T00:17:13;20.77;;;11.40;;
25715;SDS011;13573;50.936;4.328;2023-03-01T00:19:39;19.43;;;9.40;;
25715;SDS011;13573;50.936;4.328;2023-03-01T00:22:06;16.47;;;9.63;;
25715;SDS011;13573;50.936;4.328;2023-03-01T00:24:33;16.10;;;10.03;;
25715;SDS011;13573;50.936;4.328;2023-03-01T00:26:59;20.43;;;10.23;;
25715;SDS011;13573;50.936;4.328;2023-03-01T00:29:26;17.50;;;9.83;;
25715;SDS011;13573;50.936;4.328;2023-03-01T00:31:52;18.93;;;9.93;;
25715;SDS011;13573;50.936;4.328;2023-03-01T00:34:19;25.73;;;12.63;;
25715;SDS011;13573;50.936;4.328;2023-03-01T00:36:46;41.63;;;19.07;;
25715;SDS011;13573;50.936;4.328;2023-03-01T00:39:15;26.47;;;13.97;;
25715;SDS011;13573;50.936;4.328;2023-03-01T00:41:41;30.67;;;14.67;;
25715;SDS011;13573;50.936;4.328;2023-03-01T00:44:08;24.87;;;12.83;;
25715;SDS011;13573;50.936;4.328;2023-03-01T00:46:35;23.10;;;13.03;;
25715;SDS011;13573;50.936;4.328;2023-03-01T00:49:02;26.20;;;12.37;;
25715;SDS011;13573;50.936;4.328;2023-03-01T00:51:30;21.50;;;12.93;;
25715;SDS011;13573;50.936;4.328;2023-03-01T00:53:58;22.00;;;10.67;;
25715;SDS011;13573;50.936;4.328;2023-03-01T00:56:26;19.27;;;10.80;;
25715;SDS011;13573;50.936;4.328;2023-03-01T00:58:53;18.53;;;10.30;;
25715;SDS011;13573;50.936;4.328;2023-03-01T01:01:21;18.00;;;10.30;;
25715;SDS011;13573;50.936;4.328;2023-03-01T01:03:51;19.73;;;10.37;;
25715;SDS011;13573;50.936;4.328;2023-03-01T01:06:21;22.00;;;10.33;;
25715;SDS011;13573;50.936;4.328;2023-03-01T01:08:53;15.77;;;10.00;;
25715;SDS011;13573;50.936;4.328;2023-03-01T01:11:21;16.03;;;9.50;;
25715;SDS011;13573;50.936;4.328;2023-03-01T01:13:48;16.03;;;9.20;;
25715;SDS011;13573;50.936;4.328;2023-03-01T01:16:16;16.37;;;9.67;;
25715;SDS011;13573;50.936;4.328;2023-03-01T01:18:44;17.63;;;9.73;;
25715;SDS011;13573;50.936;4.328;2023-03-01T01:21:12;19.73;;;9.00;;
25715;SDS011;13573;50.936;4.328;2023-03-01T01:23:42;18.27;;;9.87;;
25715;SDS011;13573;50.936;4.328;2023-03-01T01:26:11;16.20;;;9.13;;
25715;SDS011;13573;50.936;4.328;2023-03-01T01:28:41;17.93;;;9.83;;
25715;SDS011;13573;50.936;4.328;2023-03-01T01:31:08;16.77;;;9.50;;
25715;SDS011;13573;50.936;4.328;2023-03-01T01:33:35;16.47;;;9.13;;
25715;SDS011;13573;50.936;4.328;2023-03-01T01:36:03;16.83;;;9.77;;
25715;SDS011;13573;50.936;4.328;2023-03-01T01:38:31;16.03;;;9.47;;
25715;SDS011;13573;50.936;4.328;2023-03-01T01:40:59;17.93;;;9.60;;
25715;SDS011;13573;50.936;4.328;2023-03-01T01:43:28;16.80;;;9.70;;
25715;SDS011;13573;50.936;4.328;2023-03-01T01:45:59;18.27;;;9.30;;
25715;SDS011;13573;50.936;4.328;2023-03-01T01:48:36;17.07;;;9.50;;
25715;SDS011;13573;50.936;4.328;2023-03-01T01:51:11;17.47;;;10.03;;
25715;SDS011;13573;50.936;4.328;2023-03-01T01:53:41;15.13;;;9.17;;
25715;SDS011;13573;50.936;4.328;2023-03-01T01:56:10;15.63;;;9.47;;
25715;SDS011;13573;50.936;4.328;2023-03-01T01:58:39;17.37;;;9.57;;
25715;SDS011;13573;50.936;4.328;2023-03-01T02:01:08;19.97;;;9.67;;
25715;SDS011;13573;50.936;4.328;2023-03-01T02:03:35;18.30;;;9.83;;
25715;SDS011;13573;50.936;4.328;2023-03-01T02:06:11;15.80;;;9.60;;
25715;SDS011;13573;50.936;4.328;2023-03-01T02:08:55;19.10;;;9.40;;
25715;SDS011;13573;50.936;4.328;2023-03-01T02:11:26;20.10;;;9.87;;
25715;SDS011;13573;50.936;4.328;2023-03-01T02:13:55;20.80;;;10.27;;
25715;SDS011;13573;50.936;4.328;2023-03-01T02:16:22;16.30;;;9.30;;
25715;SDS011;13573;50.936;4.328;2023-03-01T02:18:48;18.30;;;9.93;;
25715;SDS011;13573;50.936;4.328;2023-03-01T02:21:25;16.50;;;9.93;;
25715;SDS011;13573;50.936;4.328;2023-03-01T02:24:10;22.23;;;9.77;;
25715;SDS011;13573;50.936;4.328;2023-03-01T02:26:56;17.53;;;9.93;;
25715;SDS011;13573;50.936;4.328;2023-03-01T02:29:24;18.57;;;9.97;;
25715;SDS011;13573;50.936;4.328;2023-03-01T02:31:52;17.10;;;10.03;;
25715;SDS011;13573;50.936;4.328;2023-03-01T02:34:22;14.87;;;9.73;;
25715;SDS011;13573;50.936;4.328;2023-03-01T02:36:53;18.20;;;10.53;;
25715;SDS011;13573;50.936;4.328;2023-03-01T02:39:25;22.30;;;10.70;;
25715;SDS011;13573;50.936;4.328;2023-03-01T02:41:54;17.17;;;10.23;;
25715;SDS011;13573;50.936;4.328;2023-03-01T02:44:23;18.13;;;10.33;;
25715;SDS011;13573;50.936;4.328;2023-03-01T02:46:50;17.63;;;10.13;;
25715;SDS011;13573;50.936;4.328;2023-03-01T02:49:22;16.37;;;10.50;;
25715;SDS011;13573;50.936;4.328;2023-03-01T02:52:08;22.80;;;10.77;;
25715;SDS011;13573;50.936;4.328;2023-03-01T02:54:51;20.97;;;11.13;;
25715;SDS011;13573;50.936;4.328;2023-03-01T02:57:33;19.20;;;10.50;;
25715;SDS011;13573;50.936;4.328;2023-03-01T03:00:04;22.63;;;11.03;;
25715;SDS011;13573;50.936;4.328;2023-03-01T03:02:34;21.57;;;10.50;;
25715;SDS011;13573;50.936;4.328;2023-03-01T03:05:07;20.53;;;10.57;;
25715;SDS011;13573;50.936;4.328;2023-03-01T03:07:37;20.07;;;10.63;;
25715;SDS011;13573;50.936;4.328;2023-03-01T03:10:05;21.57;;;11.70;;
25715;SDS011;13573;50.936;4.328;2023-03-01T03:12:34;19.70;;;11.10;;
25715;SDS011;13573;50.936;4.328;2023-03-01T03:15:01;18.30;;;10.30;;
25715;SDS011;13573;50.936;4.328;2023-03-01T03:17:29;20.50;;;10.97;;
25715;SDS011;13573;50.936;4.328;2023-03-01T03:19:56;18.63;;;10.10;;
25715;SDS011;13573;50.936;4.328;2023-03-01T03:22:23;20.03;;;10.97;;
25715;SDS011;13573;50.936;4.328;2023-03-01T03:24:50;20.13;;;10.63;;
25715;SDS011;13573;50.936;4.328;2023-03-01T03:27:16;20.97;;;10.63;;
25715;SDS011;13573;50.936;4.328;2023-03-01T03:29:43;25.57;;;11.37;;
25715;SDS011;13573;50.936;4.328;2023-03-01T03:32:11;22.07;;;10.50;;
25715;SDS011;13573;50.936;4.328;2023-03-01T03:34:37;23.60;;;11.50;;
25715;SDS011;13573;50.936;4.328;2023-03-01T03:37:04;18.37;;;9.87;;
25715;SDS011;13573;50.936;4.328;2023-03-01T03:39:33;19.63;;;10.87;;
25715;SDS011;13573;50.936;4.328;2023-03-01T03:42:00;19.37;;;10.27;;
25715;SDS011;13573;50.936;4.328;2023-03-01T03:44:27;17.67;;;10.60;;
25715;SDS011;13573;50.936;4.328;2023-03-01T03:46:54;21.83;;;10.97;;
25715;SDS011;13573;50.936;4.328;2023-03-01T03:49:20;20.43;;;10.57;;
25715;SDS011;13573;50.936;4.328;2023-03-01T03:51:47;18.20;;;10.03;;
25715;SDS011;13573;50.936;4.328;2023-03-01T03:54:13;20.20;;;10.73;;
25715;SDS011;13573;50.936;4.328;2023-03-01T03:56:40;22.90;;;11.73;;
25715;SDS011;13573;50.936;4.328;2023-03-01T03:59:07;19.07;;;10.70;;
25715;SDS011;13573;50.936;4.328;2023-03-01T04:01:35;21.27;;;11.17;;
25715;SDS011;13573;50.936;4.328;2023-03-01T04:04:02;21.23;;;10.40;;
25715;SDS011;13573;50.936;4.328;2023-03-01T04:06:29;18.53;;;10.20;;
25715;SDS011;13573;50.936;4.328;2023-03-01T04:08:56;18.87;;;10.37;;
25715;SDS011;13573;50.936;4.328;2023-03-01T04:11:24;20.83;;;10.33;;
25715;SDS011;13573;50.936;4.328;2023-03-01T04:13:53;18.73;;;10.43;;
25715;SDS011;13573;50.936;4.328;2023-03-01T04:16:21;22.40;;;11.00;;
25715;SDS011;13573;50.936;4.328;2023-03-01T04:18:49;20.03;;;11.00;;
25715;SDS011;13573;50.936;4.328;2023-03-01T04:21:16;22.90;;;11.77;;
25715;SDS011;13573;50.936;4.328;2023-03-01T04:23:43;19.60;;;10.60;;
25715;SDS011;13573;50.936;4.328;2023-03-01T04:26:09;22.33;;;10.80;;
25715;SDS011;13573;50.936;4.328;2023-03-01T04:28:37;23.30;;;11.17;;
25715;SDS011;13573;50.936;4.328;2023-03-01T04:31:09;21.23;;;11.20;;
25715;SDS011;13573;50.936;4.328;2023-03-01T04:33:40;23.20;;;11.70;;
25715;SDS011;13573;50.936;4.328;2023-03-01T04:36:09;23.23;;;11.43;;
25715;SDS011;13573;50.936;4.328;2023-03-01T04:38:37;19.20;;;10.60;;
25715;SDS011;13573;50.936;4.328;2023-03-01T04:41:06;25.00;;;10.70;;
25715;SDS011;13573;50.936;4.328;2023-03-01T04:43:34;21.13;;;11.10;;
25715;SDS011;13573;50.936;4.328;2023-03-01T04:46:02;19.27;;;9.90;;
25715;SDS011;13573;50.936;4.328;2023-03-01T04:48:30;18.80;;;10.40;;
25715;SDS011;13573;50.936;4.328;2023-03-01T04:50:58;23.60;;;11.07;;
25715;SDS011;13573;50.936;4.328;2023-03-01T04:53:26;19.63;;;10.40;;
25715;SDS011;13573;50.936;4.328;2023-03-01T04:55:54;19.63;;;11.17;;
25715;SDS011;13573;50.936;4.328;2023-03-01T04:58:23;19.90;;;10.97;;
25715;SDS011;13573;50.936;4.328;2023-03-01T05:00:50;25.63;;;11.53;;
25715;SDS011;13573;50.936;4.328;2023-03-01T05:03:17;18.50;;;10.70;;
25715;SDS011;13573;50.936;4.328;2023-03-01T05:05:44;20.03;;;10.63;;
25715;SDS011;13573;50.936;4.328;2023-03-01T05:08:12;18.83;;;10.77;;
25715;SDS011;13573;50.936;4.328;2023-03-01T05:10:41;17.83;;;9.87;;
25715;SDS011;13573;50.936;4.328;2023-03-01T05:13:08;22.77;;;11.47;;
25715;SDS011;13573;50.936;4.328;2023-03-01T05:15:35;23.70;;;11.07;;
25715;SDS011;13573;50.936;4.328;2023-03-01T05:18:02;21.60;;;11.67;;
25715;SDS011;13573;50.936;4.328;2023-03-01T05:20:28;23.33;;;10.10;;
25715;SDS011;13573;50.936;4.328;2023-03-01T05:22:57;22.07;;;10.77;;
25715;SDS011;13573;50.936;4.328;2023-03-01T05:25:25;21.40;;;11.03;;
25715;SDS011;13573;50.936;4.328;2023-03-01T05:27:52;22.10;;;11.60;;
25715;SDS011;13573;50.936;4.328;2023-03-01T05:30:19;21.03;;;10.63;;
25715;SDS011;13573;50.936;4.328;2023-03-01T05:32:47;22.63;;;11.23;;
25715;SDS011;13573;50.936;4.328;2023-03-01T05:35:17;20.07;;;11.30;;
25715;SDS011;13573;50.936;4.328;2023-03-01T05:37:46;18.53;;;10.70;;
25715;SDS011;13573;50.936;4.328;2023-03-01T05:40:14;24.03;;;11.57;;
25715;SDS011;13573;50.936;4.328;2023-03-01T05:42:45;17.87;;;10.67;;
25715;SDS011;13573;50.936;4.328;2023-03-01T05:45:13;22.47;;;11.27;;
25715;SDS011;13573;50.936;4.328;2023-03-01T05:47:41;20.77;;;11.10;;
25715;SDS011;13573;50.936;4.328;2023-03-01T05:50:18;22.67;;;11.43;;
25715;SDS011;13573;50.936;4.328;2023-03-01T05:52:49;20.63;;;10.53;;
25715;SDS011;13573;50.936;4.328;2023-03-01T05:55:19;18.53;;;10.50;;
25715;SDS011;13573;50.936;4.328;2023-03-01T05:57:47;18.23;;;10.63;;
25715;SDS011;13573;50.936;4.328;2023-03-01T06:00:16;19.90;;;10.93;;
25715;SDS011;13573;50.936;4.328;2023-03-01T06:02:45;25.90;;;11.23;;
25715;SDS011;13573;50.936;4.328;2023-03-01T06:05:12;19.60;;;10.47;;
25715;SDS011;13573;50.936;4.328;2023-03-01T06:07:40;21.40;;;10.03;;
25715;SDS011;13573;50.936;4.328;2023-03-01T06:10:07;18.60;;;10.60;;
25715;SDS011;13573;50.936;4.328;2023-03-01T06:12:36;21.10;;;10.60;;
25715;SDS011;13573;50.936;4.328;2023-03-01T06:15:05;22.80;;;11.93;;
25715;SDS011;13573;50.936;4.328;2023-03-01T06:17:35;19.50;;;10.30;;
25715;SDS011;13573;50.936;4.328;2023-03-01T06:20:03;21.47;;;11.47;;
25715;SDS011;13573;50.936;4.328;2023-03-01T06:22:32;20.80;;;10.87;;
25715;SDS011;13573;50.936;4.328;2023-03-01T06:25:00;26.37;;;11.57;;
25715;SDS011;13573;50.936;4.328;2023-03-01T06:27:26;20.00;;;11.03;;
25715;SDS011;13573;50.936;4.328;2023-03-01T06:29:53;20.80;;;10.30;;
25715;SDS011;13573;50.936;4.328;2023-03-01T06:32:20;22.43;;;10.83;;
25715;SDS011;13573;50.936;4.328;2023-03-01T06:34:46;22.00;;;10.90;;
25715;SDS011;13573;50.936;4.328;2023-03-01T06:37:13;21.53;;;11.43;;
25715;SDS011;13573;50.936;4.328;2023-03-01T06:39:40;20.90;;;11.07;;
25715;SDS011;13573;50.936;4.328;2023-03-01T06:42:07;24.27;;;11.07;;
25715;SDS011;13573;50.936;4.328;2023-03-01T06:44:35;18.33;;;10.07;;
25715;SDS011;13573;50.936;4.328;2023-03-01T06:47:02;26.80;;;11.40;;
25715;SDS011;13573;50.936;4.328;2023-03-01T06:49:30;23.57;;;11.40;;
25715;SDS011;13573;50.936;4.328;2023-03-01T06:51:56;19.87;;;10.77;;
25715;SDS011;13573;50.936;4.328;2023-03-01T06:54:23;20.27;;;10.10;;
25715;SDS011;13573;50.936;4.328;2023-03-01T06:56:50;16.83;;;8.90;;
25715;SDS011;13573;50.936;4.328;2023-03-01T06:59:17;19.13;;;9.70;;
25715;SDS011;13573;50.936;4.328;2023-03-01T07:01:44;17.10;;;8.80;;
25715;SDS011;13573;50.936;4.328;2023-03-01T07:04:10;17.70;;;9.00;;
25715;SDS011;13573;50.936;4.328;2023-03-01T07:06:38;14.43;;;9.27;;
25715;SDS011;13573;50.936;4.328;2023-03-01T07:09:04;17.33;;;9.17;;
25715;SDS011;13573;50.936;4.328;2023-03-01T07:11:31;19.07;;;8.27;;
25715;SDS011;13573;50.936;4.328;2023-03-01T07:13:58;19.13;;;8.57;;
25715;SDS011;13573;50.936;4.328;2023-03-01T07:16:25;18.90;;;8.63;;
25715;SDS011;13573;50.936;4.328;2023-03-01T07:18:52;16.43;;;8.00;;
25715;SDS011;13573;50.936;4.328;2023-03-01T07:21:20;17.33;;;8.00;;
25715;SDS011;13573;50.936;4.328;2023-03-01T07:23:47;14.60;;;8.27;;
25715;SDS011;13573;50.936;4.328;2023-03-01T07:26:14;14.83;;;8.17;;
25715;SDS011;13573;50.936;4.328;2023-03-01T07:28:41;17.07;;;8.67;;
25715;SDS011;13573;50.936;4.328;2023-03-01T07:31:07;12.90;;;8.10;;
25715;SDS011;13573;50.936;4.328;2023-03-01T07:33:34;16.03;;;8.33;;
25715;SDS011;13573;50.936;4.328;2023-03-01T07:36:02;14.93;;;8.33;;
25715;SDS011;13573;50.936;4.328;2023-03-01T07:38:30;16.80;;;8.43;;
25715;SDS011;13573;50.936;4.328;2023-03-01T07:40:58;13.77;;;8.07;;
25715;SDS011;13573;50.936;4.328;2023-03-01T07:43:27;15.70;;;8.13;;
25715;SDS011;13573;50.936;4.328;2023-03-01T07:45:54;14.03;;;8.47;;
25715;SDS011;13573;50.936;4.328;2023-03-01T07:48:23;10.70;;;8.07;;
25715;SDS011;13573;50.936;4.328;2023-03-01T07:50:50;12.43;;;7.67;;
25715;SDS011;13573;50.936;4.328;2023-03-01T07:53:16;13.13;;;8.37;;
25715;SDS011;13573;50.936;4.328;2023-03-01T07:55:42;13.33;;;8.50;;
25715;SDS011;13573;50.936;4.328;2023-03-01T07:58:09;15.50;;;7.73;;
25715;SDS011;13573;50.936;4.328;2023-03-01T08:00:37;12.93;;;8.03;;
25715;SDS011;13573;50.936;4.328;2023-03-01T08:03:03;15.37;;;8.97;;
25715;SDS011;13573;50.936;4.328;2023-03-01T08:05:30;12.87;;;8.23;;
25715;SDS011;13573;50.936;4.328;2023-03-01T08:07:57;16.00;;;8.60;;
25715;SDS011;13573;50.936;4.328;2023-03-01T08:10:24;18.63;;;8.97;;
25715;SDS011;13573;50.936;4.328;2023-03-01T08:12:51;17.47;;;9.20;;
25715;SDS011;13573;50.936;4.328;2023-03-01T08:15:19;11.07;;;7.87;;
25715;SDS011;13573;50.936;4.328;2023-03-01T08:17:48;16.17;;;8.60;;
25715;SDS011;13573;50.936;4.328;2023-03-01T08:20:16;16.40;;;9.50;;
25715;SDS011;13573;50.936;4.328;2023-03-01T08:22:43;15.70;;;9.10;;
25715;SDS011;13573;50.936;4.328;2023-03-01T08:25:10;14.23;;;9.53;;
25715;SDS011;13573;50.936;4.328;2023-03-01T08:27:36;20.27;;;9.83;;
25715;SDS011;13573;50.936;4.328;2023-03-01T08:30:03;15.20;;;9.10;;
25715;SDS011;13573;50.936;4.328;2023-03-01T08:32:34;13.73;;;8.67;;
25715;SDS011;13573;50.936;4.328;2023-03-01T08:35:01;14.30;;;8.97;;
25715;SDS011;13573;50.936;4.328;2023-03-01T08:37:29;15.03;;;8.90;;
25715;SDS011;13573;50.936;4.328;2023-03-01T08:39:56;14.10;;;8.33;;
25715;SDS011;13573;50.936;4.328;2023-03-01T08:42:23;12.33;;;8.63;;
25715;SDS011;13573;50.936;4.328;2023-03-01T08:44:49;14.17;;;9.33;;
25715;SDS011;13573;50.936;4.328;2023-03-01T08:47:16;11.63;;;8.40;;
25715;SDS011;13573;50.936;4.328;2023-03-01T08:49:42;12.93;;;8.80;;
25715;SDS011;13573;50.936;4.328;2023-03-01T08:52:10;16.13;;;9.60;;
25715;SDS011;13573;50.936;4.328;2023-03-01T08:54:37;14.73;;;9.17;;
25715;SDS011;13573;50.936;4.328;2023-03-01T08:57:04;14.53;;;8.70;;
25715;SDS011;13573;50.936;4.328;2023-03-01T08:59:31;13.07;;;9.00;;
25715;SDS011;13573;50.936;4.328;2023-03-01T09:01:59;14.83;;;9.33;;
25715;SDS011;13573;50.936;4.328;2023-03-01T09:04:25;15.47;;;9.70;;
25715;SDS011;13573;50.936;4.328;2023-03-01T09:06:52;19.73;;;9.30;;
25715;SDS011;13573;50.936;4.328;2023-03-01T09:09:19;13.87;;;9.43;;
25715;SDS011;13573;50.936;4.328;2023-03-01T09:11:46;13.53;;;8.90;;
25715;SDS011;13573;50.936;4.328;2023-03-01T09:14:13;13.73;;;9.00;;
25715;SDS011;13573;50.936;4.328;2023-03-01T09:16:43;13.67;;;9.37;;
25715;SDS011;13573;50.936;4.328;2023-03-01T09:19:11;14.73;;;8.97;;
25715;SDS011;13573;50.936;4.328;2023-03-01T09:21:37;19.53;;;9.57;;
25715;SDS011;13573;50.936;4.328;2023-03-01T09:24:03;16.83;;;9.47;;
25715;SDS011;13573;50.936;4.328;2023-03-01T09:26:30;17.43;;;8.80;;
25715;SDS011;13573;50.936;4.328;2023-03-01T09:28:57;18.40;;;8.60;;
25715;SDS011;13573;50.936;4.328;2023-03-01T09:31:24;15.60;;;8.60;;
25715;SDS011;13573;50.936;4.328;2023-03-01T09:33:51;15.83;;;9.00;;
25715;SDS011;13573;50.936;4.328;2023-03-01T09:36:22;13.80;;;8.60;;
25715;SDS011;13573;50.936;4.328;2023-03-01T09:38:51;16.57;;;9.07;;
25715;SDS011;13573;50.936;4.328;2023-03-01T09:41:23;12.50;;;8.73;;
25715;SDS011;13573;50.936;4.328;2023-03-01T09:43:51;15.37;;;9.47;;
25715;SDS011;13573;50.936;4.328;2023-03-01T09:46:22;17.63;;;10.50;;
25715;SDS011;13573;50.936;4.328;2023-03-01T09:48:55;17.13;;;8.73;;
25715;SDS011;13573;50.936;4.328;2023-03-01T09:51:27;11.70;;;8.90;;
25715;SDS011;13573;50.936;4.328;2023-03-01T09:53:57;17.37;;;9.47;;
25715;SDS011;13573;50.936;4.328;2023-03-01T09:56:29;13.50;;;9.53;;
25715;SDS011;13573;50.936;4.328;2023-03-01T09:59:23;14.77;;;9.53;;
25715;SDS011;13573;50.936;4.328;2023-03-01T10:04:52;14.23;;;9.80;;
25715;SDS011;13573;50.936;4.328;2023-03-01T10:07:27;17.50;;;9.93;;
25715;SDS011;13573;50.936;4.328;2023-03-01T10:09:58;13.57;;;8.97;;
25715;SDS011;13573;50.936;4.328;2023-03-01T10:12:27;13.33;;;8.97;;
25715;SDS011;13573;50.936;4.328;2023-03-01T10:15:02;15.50;;;9.77;;
25715;SDS011;13573;50.936;4.328;2023-03-01T10:17:47;16.23;;;9.43;;
25715;SDS011;13573;50.936;4.328;2023-03-01T10:20:21;13.50;;;9.23;;
25715;SDS011;13573;50.936;4.328;2023-03-01T10:22:48;13.60;;;9.30;;
25715;SDS011;13573;50.936;4.328;2023-03-01T10:25:23;15.23;;;9.13;;
25715;SDS011;13573;50.936;4.328;2023-03-01T10:27:54;14.13;;;9.33;;
25715;SDS011;13573;50.936;4.328;2023-03-01T10:30:38;15.23;;;9.70;;
25715;SDS011;13573;50.936;4.328;2023-03-01T10:33:13;15.43;;;10.10;;
25715;SDS011;13573;50.936;4.328;2023-03-01T10:35:41;13.13;;;8.93;;
25715;SDS011;13573;50.936;4.328;2023-03-01T10:38:10;16.83;;;8.63;;
25715;SDS011;13573;50.936;4.328;2023-03-01T10:40:37;14.13;;;8.63;;
25715;SDS011;13573;50.936;4.328;2023-03-01T10:43:11;12.37;;;8.67;;
25715;SDS011;13573;50.936;4.328;2023-03-01T10:45:39;14.63;;;8.87;;
25715;SDS011;13573;50.936;4.328;2023-03-01T10:48:23;14.30;;;8.90;;
25715;SDS011;13573;50.936;4.328;2023-03-01T10:51:05;13.17;;;9.00;;
25715;SDS011;13573;50.936;4.328;2023-03-01T10:53:34;16.03;;;9.67;;
25715;SDS011;13573;50.936;4.328;2023-03-01T10:56:06;12.27;;;8.90;;
25715;SDS011;13573;50.936;4.328;2023-03-01T10:58:34;17.33;;;8.70;;
25715;SDS011;13573;50.936;4.328;2023-03-01T11:01:03;15.23;;;9.10;;
25715;SDS011;13573;50.936;4.328;2023-03-01T11:03:32;15.33;;;9.63;;
25715;SDS011;13573;50.936;4.328;2023-03-01T11:06:01;14.80;;;9.00;;
25715;SDS011;13573;50.936;4.328;2023-03-01T11:08:34;14.30;;;9.10;;
25715;SDS011;13573;50.936;4.328;2023-03-01T11:11:10;14.70;;;8.93;;
25715;SDS011;13573;50.936;4.328;2023-03-01T11:14:20;16.10;;;8.53;;
25715;SDS011;13573;50.936;4.328;2023-03-01T11:16:36;11.93;;;8.80;;
25715;SDS011;13573;50.936;4.328;2023-03-01T11:19:17;12.93;;;8.57;;
25715;SDS011;13573;50.936;4.328;2023-03-01T11:21:54;14.63;;;8.97;;
25715;SDS011;13573;50.936;4.328;2023-03-01T11:24:32;15.27;;;9.30;;
25715;SDS011;13573;50.936;4.328;2023-03-01T11:27:26;16.70;;;9.17;;
25715;SDS011;13573;50.936;4.328;2023-03-01T11:29:59;16.13;;;8.57;;
25715;SDS011;13573;50.936;4.328;2023-03-01T11:32:31;15.53;;;9.50;;
25715;SDS011;13573;50.936;4.328;2023-03-01T11:35:02;15.10;;;8.93;;
25715;SDS011;13573;50.936;4.328;2023-03-01T11:37:32;13.20;;;8.87;;
25715;SDS011;13573;50.936;4.328;2023-03-01T11:40:05;13.87;;;8.53;;
25715;SDS011;13573;50.936;4.328;2023-03-01T11:42:44;18.00;;;8.53;;
25715;SDS011;13573;50.936;4.328;2023-03-01T11:45:14;13.80;;;8.03;;
25715;SDS011;13573;50.936;4.328;2023-03-01T11:48:06;12.07;;;8.73;;
25715;SDS011;13573;50.936;4.328;2023-03-01T11:50:35;16.93;;;8.33;;
25715;SDS011;13573;50.936;4.328;2023-03-01T11:53:27;15.40;;;8.67;;
25715;SDS011;13573;50.936;4.328;2023-03-01T11:56:12;12.20;;;8.20;;
25715;SDS011;13573;50.936;4.328;2023-03-01T11:58:45;14.30;;;8.90;;
25715;SDS011;13573;50.936;4.328;2023-03-01T12:01:21;11.77;;;8.27;;
25715;SDS011;13573;50.936;4.328;2023-03-01T12:06:56;13.13;;;8.83;;
25715;SDS011;13573;50.936;4.328;2023-03-01T12:09:32;12.87;;;8.80;;
25715;SDS011;13573;50.936;4.328;2023-03-01T12:12:11;15.90;;;10.53;;
25715;SDS011;13573;50.936;4.328;2023-03-01T12:14:42;14.67;;;9.10;;
25715;SDS011;13573;50.936;4.328;2023-03-01T12:20:01;16.53;;;10.20;;
25715;SDS011;13573;50.936;4.328;2023-03-01T12:22:29;15.37;;;9.17;;
25715;SDS011;13573;50.936;4.328;2023-03-01T12:25:10;11.50;;;8.57;;
25715;SDS011;13573;50.936;4.328;2023-03-01T12:28:18;13.60;;;9.30;;
25715;SDS011;13573;50.936;4.328;2023-03-01T12:30:49;14.33;;;9.30;;
25715;SDS011;13573;50.936;4.328;2023-03-01T12:33:22;11.93;;;8.47;;
25715;SDS011;13573;50.936;4.328;2023-03-01T12:36:05;17.17;;;8.77;;
25715;SDS011;13573;50.936;4.328;2023-03-01T12:38:41;11.17;;;8.30;;
25715;SDS011;13573;50.936;4.328;2023-03-01T12:41:27;10.87;;;8.03;;
25715;SDS011;13573;50.936;4.328;2023-03-01T12:44:25;11.83;;;8.40;;
25715;SDS011;13573;50.936;4.328;2023-03-01T12:47:20;14.67;;;9.37;;
25715;SDS011;13573;50.936;4.328;2023-03-01T12:50:04;11.43;;;8.87;;
25715;SDS011;13573;50.936;4.328;2023-03-01T12:52:37;12.10;;;8.60;;
25715;SDS011;13573;50.936;4.328;2023-03-01T12:55:14;12.33;;;7.83;;
25715;SDS011;13573;50.936;4.328;2023-03-01T12:58:04;11.17;;;7.97;;
25715;SDS011;13573;50.936;4.328;2023-03-01T13:00:38;12.30;;;8.00;;
25715;SDS011;13573;50.936;4.328;2023-03-01T13:08:38;13.63;;;8.57;;
25715;SDS011;13573;50.936;4.328;2023-03-01T13:11:18;11.20;;;8.10;;
25715;SDS011;13573;50.936;4.328;2023-03-01T13:13:47;11.43;;;8.03;;
25715;SDS011;13573;50.936;4.328;2023-03-01T13:18:50;15.50;;;8.10;;
25715;SDS011;13573;50.936;4.328;2023-03-01T13:21:29;12.73;;;8.27;;
25715;SDS011;13573;50.936;4.328;2023-03-01T13:23:56;12.37;;;7.73;;
25715;SDS011;13573;50.936;4.328;2023-03-01T13:26:23;11.40;;;8.33;;
25715;SDS011;13573;50.936;4.328;2023-03-01T13:28:51;16.03;;;8.67;;
25715;SDS011;13573;50.936;4.328;2023-03-01T13:32:23;10.00;;;7.67;;
25715;SDS011;13573;50.936;4.328;2023-03-01T13:37:09;13.47;;;9.07;;
25715;SDS011;13573;50.936;4.328;2023-03-01T13:39:39;12.87;;;9.33;;
25715;SDS011;13573;50.936;4.328;2023-03-01T13:42:28;11.53;;;8.67;;
25715;SDS011;13573;50.936;4.328;2023-03-01T13:44:41;10.20;;;7.87;;
25715;SDS011;13573;50.936;4.328;2023-03-01T13:49:46;12.87;;;8.50;;
25715;SDS011;13573;50.936;4.328;2023-03-01T13:52:54;10.80;;;7.70;;
25715;SDS011;13573;50.936;4.328;2023-03-01T13:55:18;13.03;;;8.63;;
25715;SDS011;13573;50.936;4.328;2023-03-01T13:57:50;12.30;;;8.03;;
25715;SDS011;13573;50.936;4.328;2023-03-01T14:00:24;11.43;;;7.77;;
25715;SDS011;13573;50.936;4.328;2023-03-01T14:05:43;12.47;;;8.37;;
25715;SDS011;13573;50.936;4.328;2023-03-01T14:08:20;19.13;;;9.77;;
25715;SDS011;13573;50.936;4.328;2023-03-01T14:10:53;19.77;;;11.60;;
25715;SDS011;13573;50.936;4.328;2023-03-01T14:13:28;15.23;;;10.50;;
25715;SDS011;13573;50.936;4.328;2023-03-01T14:16:19;13.73;;;9.10;;
25715;SDS011;13573;50.936;4.328;2023-03-01T14:19:06;17.70;;;11.73;;
25715;SDS011;13573;50.936;4.328;2023-03-01T14:21:34;14.40;;;10.07;;
25715;SDS011;13573;50.936;4.328;2023-03-01T14:24:02;17.20;;;10.53;;
25715;SDS011;13573;50.936;4.328;2023-03-01T14:26:29;14.97;;;9.50;;
25715;SDS011;13573;50.936;4.328;2023-03-01T14:28:59;12.33;;;8.23;;
25715;SDS011;13573;50.936;4.328;2023-03-01T14:31:32;14.83;;;8.47;;
25715;SDS011;13573;50.936;4.328;2023-03-01T14:34:02;12.97;;;8.20;;
25715;SDS011;13573;50.936;4.328;2023-03-01T14:36:30;15.07;;;8.70;;
25715;SDS011;13573;50.936;4.328;2023-03-01T14:38:58;12.63;;;8.87;;
25715;SDS011;13573;50.936;4.328;2023-03-01T14:41:27;12.80;;;8.60;;
25715;SDS011;13573;50.936;4.328;2023-03-01T14:43:55;13.23;;;8.43;;
25715;SDS011;13573;50.936;4.328;2023-03-01T14:46:26;13.43;;;8.73;;
25715;SDS011;13573;50.936;4.328;2023-03-01T14:49:04;13.97;;;8.87;;
25715;SDS011;13573;50.936;4.328;2023-03-01T14:51:36;16.83;;;9.43;;
25715;SDS011;13573;50.936;4.328;2023-03-01T14:54:11;11.47;;;8.00;;
25715;SDS011;13573;50.936;4.328;2023-03-01T14:56:44;14.83;;;8.90;;
25715;SDS011;13573;50.936;4.328;2023-03-01T14:59:12;12.80;;;8.00;;
25715;SDS011;13573;50.936;4.328;2023-03-01T15:01:40;14.30;;;8.47;;
25715;SDS011;13573;50.936;4.328;2023-03-01T15:04:10;14.30;;;7.87;;
25715;SDS011;13573;50.936;4.328;2023-03-01T15:06:38;15.40;;;8.90;;
25715;SDS011;13573;50.936;4.328;2023-03-01T15:09:05;17.33;;;8.87;;
25715;SDS011;13573;50.936;4.328;2023-03-01T15:11:32;15.63;;;8.80;;